Swansboro, NC (28584)

12:13 PM EDT on August 01, 2015 (GMT -0400)
Marsh Harbor | | Change Station
CLOSE
Current Station
Personal Weather Station
Location: Cedar Point, NC
Elevation: 12 ft
Nearby Weather Stations

Elev 12 ft 34.69 °N, 77.08 °W | Updated 25 seconds ago

Overcast
Overcast
86.2 °F
Feels Like 98 °F
N
4.0
Wind Variable Wind from SW
Gusts 4.0 mph

Today
High -- | Low -- °F
--% Chance of Precip.
Yesterday
High -- | Low -- °F
Precip. -- in
6:18 AM 8:10 PM
Full, 98% visible
Pressure 29.96 in
Visibility 10.0 miles
Clouds Few 1600 ft
Scattered Clouds 2500 ft
Heat Index 98 °F
Dew Point 78 °F
Humidity 76%
Rainfall 0.00 in
Snow Depth Not available.
UV 9 out of 12
Pollen 3.40 out of 12
Air Quality Not available.
Flu Activity Not available.
METAR KNJM 011557Z AUTO 20007KT 10SM FEW016 SCT025 29/24 A2994 RMK AO2 SLP143 T02940244

More Conditions Fewer Conditions

Pressure 29.96 in
Visibility 10.0 miles
Clouds Few 1600 ft
Scattered Clouds 2500 ft
Heat Index 98 °F
Dew Point 78 °F
Humidity 76%
Rainfall 0.00 in
Snow Depth Not available.
UV 9 out of 12
Pollen 3.40 out of 12
Air Quality Not available.
Flu Activity Not available.
METAR KNJM 011557Z AUTO 20007KT 10SM FEW016 SCT025 29/24 A2994 RMK AO2 SLP143 T02940244

More Conditions Fewer Conditions

10-Day Weather Forecast

×

Almanac

Astronomy

Aug. 01, 2015 Rise Set
Actual Time
Civil Twilight
Nautical Twilight
Astronomical Twilight
Moon
Length of Visible Light
Length of Day
Tomorrow will be .
, % of the Moon is Illuminated

Today's Extremes

State Highs State Lows

Community

WunderPhotos

Upload Photos

1,842,975 photos uploaded!

WunderBlogs® & News

Nearby

Air Quality

  Air Quality AQ Index Pollutant
Not available.

Snow Depth

Station Depth Elevation

Earthquake Activity

City Distance Mag. Time & Date
Minimum magnitude displayed is 2.5.

Coastal Water Temperatures

Place Temperature

Stations

Nearby Weather Stations

Station Location Temp. Windchill Dew Point Humidity Wind Precip. Elev Updated Type